Kevil, Kentucky
Current Conditions -  °F | °C
As of 5:53 AM on Monday 20 Oct 2014 (Local Time) from KPAH Reporting Station
Clear Clear  
Wind Chill: 11°   Ceiling: Unl
Heat Index: 11°   Visibility: 10mi
Dew Point:   Wind: 6mph
Humidity: 83%   Direction: 220°SW
Pressure: 30.03"   Gusts: NA
Location:  37.09°N, 88.89°W
Report Text: KPAH 201053Z 22005KT 10SM CLR 11/08 A3003 RMK AO2 SLP168 T01060078
Loading
Personal Weather Stations






























Interactive Weather Map
Tropical Storm Tracking
New forecast layout! Learn more

10-Day Weather Forecast

Advertisements
Track Severe Weather on mobile